createdAt,value
2018-09-30T00:03:50.365Z,72.13
2018-09-30T00:08:53.443Z,72.97
2018-09-30T00:13:56.512Z,72.62
2018-09-30T00:18:59.755Z,73.37
2018-09-30T00:24:08.594Z,73.59
2018-09-30T00:29:11.707Z,72.95
2018-09-30T00:34:20.367Z,72.50
2018-09-30T00:39:23.826Z,73.17
2018-09-30T00:44:26.935Z,72.42
2018-09-30T00:49:30.061Z,72.39
2018-09-30T00:54:33.140Z,72.19
2018-09-30T00:59:36.315Z,71.37
2018-09-30T01:04:39.444Z,71.45
2018-09-30T01:09:42.643Z,71.76
2018-09-30T01:14:45.705Z,72.23
2018-09-30T01:19:48.775Z,72.71
2018-09-30T01:24:51.818Z,73.12
2018-09-30T01:29:54.868Z,73.05
2018-09-30T01:34:57.928Z,73.00
2018-09-30T01:40:01.012Z,72.69
2018-09-30T01:45:04.160Z,72.36
2018-09-30T01:50:07.291Z,71.84
2018-09-30T01:55:10.358Z,70.99
2018-09-30T02:00:13.648Z,70.93
2018-09-30T02:05:17.321Z,70.82
2018-09-30T02:10:20.398Z,71.28
2018-09-30T02:15:23.467Z,71.51
2018-09-30T02:20:26.535Z,71.03
2018-09-30T02:25:29.619Z,71.16
2018-09-30T02:30:32.724Z,71.59
2018-09-30T02:35:35.779Z,71.49
2018-09-30T02:48:20.725Z,73.30
2018-09-30T02:53:23.833Z,73.42
2018-09-30T02:58:26.876Z,73.28
2018-09-30T03:03:29.955Z,72.77
2018-09-30T03:08:38.966Z,72.19
2018-09-30T03:13:42.394Z,71.54
2018-09-30T03:18:45.817Z,71.28
2018-09-30T03:23:49.270Z,70.86
2018-09-30T03:28:52.717Z,70.48
2018-09-30T03:33:56.142Z,70.97
2018-09-30T03:38:59.524Z,71.28
2018-09-30T03:44:02.902Z,71.71
2018-09-30T03:49:06.554Z,71.79
2018-09-30T03:54:09.957Z,72.43
2018-09-30T03:59:13.397Z,71.72
2018-09-30T04:04:16.724Z,71.39
2018-09-30T04:09:19.820Z,71.00
2018-09-30T04:14:22.916Z,71.47
2018-09-30T04:19:25.991Z,71.50
2018-09-30T04:24:29.080Z,71.49
2018-09-30T04:29:32.147Z,71.44
2018-09-30T04:34:35.283Z,71.17
2018-09-30T04:39:38.348Z,71.34
2018-09-30T04:44:41.420Z,71.47
2018-09-30T04:49:44.528Z,71.45
2018-09-30T04:54:47.607Z,71.95
2018-09-30T04:59:50.686Z,72.45
2018-09-30T05:04:54.190Z,71.96
2018-09-30T05:09:57.351Z,71.99
2018-09-30T05:15:00.757Z,72.23
2018-09-30T05:20:04.600Z,72.03
2018-09-30T05:25:07.787Z,71.95
2018-09-30T05:30:10.851Z,72.82
2018-09-30T05:35:13.939Z,72.82
2018-09-30T05:40:17.056Z,72.25
2018-09-30T05:45:21.386Z,72.11
2018-09-30T05:50:24.514Z,71.43
2018-09-30T05:55:27.631Z,72.06
2018-09-30T06:00:30.732Z,72.34
2018-09-30T06:05:33.897Z,72.44
2018-09-30T06:10:37.006Z,71.52
2018-09-30T06:15:40.089Z,71.12
2018-09-30T06:20:43.209Z,70.64
2018-09-30T06:25:46.366Z,70.96
2018-09-30T06:30:49.456Z,70.51
2018-09-30T06:35:52.567Z,70.76
2018-09-30T06:40:55.640Z,69.92
2018-09-30T06:45:58.793Z,69.85
2018-09-30T06:51:01.974Z,69.65
2018-09-30T06:56:05.087Z,69.25
2018-09-30T07:01:08.219Z,69.08
2018-09-30T07:06:11.540Z,69.78
2018-09-30T07:11:14.780Z,69.88
2018-09-30T07:16:17.891Z,69.95
2018-09-30T07:21:21.133Z,70.65
2018-09-30T07:26:24.267Z,70.42
2018-09-30T07:31:27.388Z,69.51
2018-09-30T07:36:30.492Z,68.58
2018-09-30T07:41:37.158Z,67.25
2018-09-30T07:46:40.309Z,65.25
2018-09-30T07:51:43.397Z,64.74
2018-09-30T07:56:46.541Z,63.68
2018-09-30T08:01:49.684Z,63.86
2018-09-30T08:06:52.808Z,63.02
2018-09-30T08:11:56.241Z,61.68
2018-09-30T08:16:59.321Z,60.50
2018-09-30T08:22:02.443Z,59.25
2018-09-30T08:27:05.651Z,58.03
2018-09-30T08:32:08.780Z,56.94
2018-09-30T08:37:22.156Z,55.96
2018-09-30T08:42:25.231Z,55.50
2018-09-30T08:47:28.403Z,54.00
2018-09-30T08:52:31.404Z,53.00
2018-09-30T08:57:34.452Z,51.95
2018-09-30T09:02:37.560Z,52.87
2018-09-30T09:07:40.644Z,52.60
2018-09-30T09:12:43.867Z,51.48
2018-09-30T09:17:46.943Z,50.81
2018-09-30T09:22:50.063Z,49.87
2018-09-30T09:27:53.128Z,49.73
2018-09-30T09:32:56.303Z,50.51
2018-09-30T09:37:59.427Z,49.03
2018-09-30T09:43:02.539Z,48.75
2018-09-30T09:48:06.032Z,48.22
2018-09-30T09:53:09.259Z,48.11
2018-09-30T09:58:12.427Z,47.95
2018-09-30T10:03:16.134Z,47.52
2018-09-30T10:08:19.342Z,46.98
2018-09-30T10:13:22.566Z,46.36
2018-09-30T10:18:25.716Z,46.22
2018-09-30T10:23:29.772Z,44.70
2018-09-30T10:28:32.898Z,45.31
2018-09-30T10:33:36.173Z,45.29
2018-09-30T10:38:39.332Z,44.85
2018-09-30T10:43:42.410Z,44.38
2018-09-30T10:48:45.527Z,43.24
2018-09-30T10:53:48.589Z,44.10
2018-09-30T10:58:51.774Z,43.99
2018-09-30T11:03:55.148Z,43.81
2018-09-30T11:08:58.269Z,41.68
2018-09-30T11:14:01.490Z,42.33
2018-09-30T11:19:04.764Z,42.17
2018-09-30T11:24:07.955Z,43.08
2018-09-30T11:29:11.057Z,42.45
2018-09-30T11:34:15.165Z,41.78
2018-09-30T11:44:59.733Z,40.52
2018-09-30T11:50:02.980Z,40.00
2018-09-30T11:55:06.320Z,40.47
2018-09-30T12:00:09.237Z,39.16
2018-09-30T12:05:12.348Z,38.84
2018-09-30T12:10:15.448Z,38.53
2018-09-30T12:15:18.564Z,38.98
2018-09-30T12:20:21.691Z,38.78
2018-09-30T12:25:24.839Z,38.61
2018-09-30T12:30:28.043Z,38.42
2018-09-30T12:35:31.345Z,37.30
2018-09-30T12:40:35.554Z,37.25
2018-09-30T12:45:38.656Z,37.12
2018-09-30T12:50:41.726Z,37.50
2018-09-30T12:55:44.828Z,36.84
2018-09-30T13:00:47.969Z,37.23
2018-09-30T13:05:51.231Z,37.25
2018-09-30T13:10:54.306Z,37.12
2018-09-30T13:15:57.412Z,36.87
2018-09-30T13:21:00.937Z,37.48
2018-09-30T13:26:04.052Z,37.10
2018-09-30T13:31:07.194Z,36.24
2018-09-30T13:36:10.364Z,36.97
2018-09-30T13:41:13.645Z,35.94
2018-09-30T13:46:16.744Z,35.95
2018-09-30T13:51:19.921Z,36.48
2018-09-30T13:56:22.947Z,37.11
2018-09-30T14:01:26.060Z,37.16
2018-09-30T14:06:29.160Z,36.47
2018-09-30T14:11:32.240Z,37.01
2018-09-30T14:16:35.362Z,36.00
2018-09-30T14:21:38.447Z,36.42
2018-09-30T14:26:41.543Z,36.92
2018-09-30T14:31:44.661Z,36.57
2018-09-30T14:36:47.752Z,37.13
2018-09-30T14:41:50.836Z,36.62
2018-09-30T14:46:53.924Z,37.50
2018-09-30T14:51:57.003Z,37.17
2018-09-30T14:57:00.101Z,37.57
2018-09-30T15:02:03.176Z,38.67
2018-09-30T15:07:06.294Z,38.77
2018-09-30T15:12:09.419Z,38.66
2018-09-30T15:17:12.523Z,39.14
2018-09-30T15:22:15.604Z,39.64
2018-09-30T15:27:18.667Z,39.62
2018-09-30T15:32:21.829Z,40.09
2018-09-30T15:37:25.163Z,39.88
2018-09-30T15:42:28.383Z,40.46
2018-09-30T15:47:31.454Z,40.94
2018-09-30T15:52:34.845Z,41.17
2018-09-30T15:57:37.944Z,41.98
2018-09-30T16:02:41.120Z,41.31
2018-09-30T16:07:44.242Z,40.26
2018-09-30T16:12:47.519Z,40.09
2018-09-30T16:17:50.663Z,39.39
2018-09-30T16:22:53.871Z,39.98
2018-09-30T16:27:57.007Z,39.46
2018-09-30T16:33:00.116Z,39.60
2018-09-30T16:38:03.336Z,40.12
2018-09-30T16:43:06.642Z,40.65
2018-09-30T16:48:09.966Z,41.21
2018-09-30T16:53:13.284Z,41.79
2018-09-30T16:58:16.395Z,42.14
2018-09-30T17:03:19.540Z,42.91
2018-09-30T17:08:22.655Z,43.43
2018-09-30T17:13:25.784Z,43.56
2018-09-30T17:18:28.997Z,43.41
2018-09-30T17:23:32.205Z,43.70
2018-09-30T17:28:35.705Z,43.58
2018-09-30T17:33:38.829Z,44.02
2018-09-30T17:38:41.949Z,45.08
2018-09-30T17:43:45.131Z,45.55
2018-09-30T17:48:48.762Z,45.88
2018-09-30T17:53:52.163Z,47.11
2018-09-30T17:58:56.716Z,47.65
2018-09-30T18:04:00.421Z,47.50
2018-09-30T18:09:07.061Z,47.61
2018-09-30T18:14:10.987Z,47.68
2018-09-30T18:24:59.937Z,48.65
2018-09-30T18:30:03.472Z,49.22
2018-09-30T18:35:06.850Z,49.23
2018-09-30T18:40:11.151Z,49.33
2018-09-30T18:45:14.713Z,50.08
2018-09-30T18:50:17.893Z,50.38
2018-09-30T18:55:21.020Z,50.94
2018-09-30T19:00:24.277Z,52.03
2018-09-30T19:05:27.744Z,51.99
2018-09-30T19:10:30.891Z,52.22
2018-09-30T19:15:34.027Z,53.07
2018-09-30T19:20:37.294Z,54.01
2018-09-30T19:25:40.471Z,54.40
2018-09-30T19:30:43.756Z,55.80
2018-09-30T19:35:46.913Z,55.77
2018-09-30T19:40:50.091Z,56.54
2018-09-30T19:45:53.222Z,56.20
2018-09-30T19:50:56.322Z,56.04
2018-09-30T19:55:59.388Z,56.22
2018-09-30T20:01:02.569Z,56.55
2018-09-30T20:06:05.699Z,58.80
2018-09-30T20:11:08.771Z,60.11
2018-09-30T20:16:11.941Z,59.39
2018-09-30T20:21:15.128Z,58.63
2018-09-30T20:26:18.416Z,58.24
2018-09-30T20:31:21.533Z,58.98
2018-09-30T20:36:24.627Z,58.43
2018-09-30T20:41:28.910Z,58.25
2018-09-30T20:46:32.104Z,57.96
2018-09-30T20:51:35.643Z,57.41
2018-09-30T20:56:38.800Z,57.60
2018-09-30T21:01:41.923Z,57.48
2018-09-30T21:06:45.429Z,57.04
2018-09-30T21:11:48.639Z,58.27
2018-09-30T21:16:51.736Z,58.00
2018-09-30T21:21:54.794Z,58.19
2018-09-30T21:26:57.926Z,58.15
2018-09-30T21:32:01.166Z,58.63
2018-09-30T21:37:04.486Z,60.21
2018-09-30T21:42:07.624Z,61.03
2018-09-30T21:47:11.739Z,61.04
2018-09-30T21:52:14.831Z,60.58
2018-09-30T21:57:17.976Z,59.72
2018-09-30T22:02:21.147Z,59.99
2018-09-30T22:07:24.302Z,60.29
2018-09-30T22:12:27.407Z,60.51
2018-09-30T22:17:30.601Z,60.63
2018-09-30T22:22:33.707Z,60.85
2018-09-30T22:27:36.840Z,60.61
2018-09-30T22:32:39.933Z,60.51
2018-09-30T22:37:43.075Z,60.65
2018-09-30T22:42:46.159Z,60.36
2018-09-30T22:47:49.239Z,61.17
2018-09-30T22:52:52.304Z,61.38
2018-09-30T22:57:55.437Z,61.14
2018-09-30T23:02:58.631Z,61.47
2018-09-30T23:08:01.815Z,61.82
2018-09-30T23:13:05.174Z,61.97
2018-09-30T23:18:08.384Z,61.84
2018-09-30T23:23:11.530Z,62.36
2018-09-30T23:28:14.655Z,63.22
2018-09-30T23:33:17.823Z,63.71
2018-09-30T23:38:20.923Z,64.12
2018-09-30T23:43:24.028Z,64.21
2018-09-30T23:48:27.158Z,65.04
2018-09-30T23:53:30.267Z,64.88
2018-09-30T23:58:33.402Z,65.19
